DLH2GY EFKT-ESGG
Flight info
| Callsign | DLH2GY |
|---|---|
| Flight time | 1h 51m |
| Altitude | 36000 |
| Route | NEBET T400 ABALA DCT OGIRO M852 NEGIL |
| Aircraft | A321/M-SDE3FGHIRWY/LB1 |
Departure
| Time | 2026-04-25 14:56 |
|---|---|
| Airport | Kittilä International Airport (EFKT) |
Arrival
| Time | 2026-04-25 16:47 |
|---|---|
| Airport | Göteborg Landvetter Airport (ESGG) |
| Time | Latitude | Longitude | Altitude | Speed | Heading |
|---|---|---|---|---|---|
| 2026-04-25 14:24 | 67.69541 | 24.85686 | 639 ft | 0 kts | 126° |
| 2026-04-25 14:49 | 67.69538 | 24.85689 | 639 ft | 1 kts | 148° |
| 2026-04-25 14:50 | 67.69535 | 24.85687 | 639 ft | 0 kts | 171° |
| 2026-04-25 14:50 | 67.69534 | 24.85684 | 639 ft | 0 kts | 188° |
| 2026-04-25 14:50 | 67.69534 | 24.85681 | 639 ft | 0 kts | 199° |
| 2026-04-25 14:50 | 67.69530 | 24.85672 | 646 ft | 1 kts | 217° |
| 2026-04-25 14:51 | 67.69524 | 24.85650 | 643 ft | 1 kts | 239° |
| 2026-04-25 14:51 | 67.69521 | 24.85624 | 644 ft | 3 kts | 253° |
| 2026-04-25 14:51 | 67.69524 | 24.85554 | 642 ft | 4 kts | 279° |
| 2026-04-25 14:51 | 67.69527 | 24.85496 | 643 ft | 3 kts | 278° |
| 2026-04-25 14:52 | 67.69529 | 24.85458 | 643 ft | 2 kts | 275° |
| 2026-04-25 14:52 | 67.69528 | 24.85411 | 644 ft | 3 kts | 265° |
| 2026-04-25 14:52 | 67.69525 | 24.85363 | 645 ft | 2 kts | 259° |
| 2026-04-25 14:52 | 67.69523 | 24.85343 | 645 ft | 1 kts | 258° |
| 2026-04-25 14:53 | 67.69522 | 24.85329 | 647 ft | 0 kts | 258° |
| 2026-04-25 14:54 | 67.69519 | 24.85294 | 646 ft | 4 kts | 258° |
| 2026-04-25 14:54 | 67.69512 | 24.85207 | 649 ft | 6 kts | 258° |
| 2026-04-25 14:54 | 67.69512 | 24.85092 | 646 ft | 6 kts | 309° |
| 2026-04-25 14:55 | 67.69562 | 24.85043 | 646 ft | 10 kts | 345° |
| 2026-04-25 14:55 | 67.69768 | 24.84910 | 643 ft | 66 kts | 346° |
| 2026-04-25 14:55 | 67.70458 | 24.84468 | 641 ft | 135 kts | 347° |
| 2026-04-25 14:55 | 67.71419 | 24.83781 | 1234 ft | 140 kts | 346° |
| 2026-04-25 14:56 | 67.72358 | 24.83037 | 2111 ft | 141 kts | 343° |
| 2026-04-25 14:56 | 67.73286 | 24.81928 | 2692 ft | 159 kts | 320° |
| 2026-04-25 14:56 | 67.73715 | 24.79051 | 3061 ft | 193 kts | 271° |
| 2026-04-25 14:56 | 67.73154 | 24.75593 | 3467 ft | 221 kts | 236° |
| 2026-04-25 14:57 | 67.72044 | 24.72462 | 3799 ft | 248 kts | 225° |
| 2026-04-25 14:57 | 67.70696 | 24.69373 | 4544 ft | 257 kts | 223° |
| 2026-04-25 14:57 | 67.69344 | 24.66335 | 5424 ft | 263 kts | 223° |
| 2026-04-25 14:57 | 67.67868 | 24.63397 | 6304 ft | 270 kts | 208° |
| 2026-04-25 14:58 | 67.66036 | 24.61913 | 7053 ft | 279 kts | 195° |
| 2026-04-25 14:58 | 67.64135 | 24.60517 | 7809 ft | 287 kts | 198° |
| 2026-04-25 14:58 | 67.62217 | 24.58900 | 8713 ft | 289 kts | 200° |
| 2026-04-25 14:58 | 67.60328 | 24.57160 | 9587 ft | 293 kts | 201° |
| 2026-04-25 14:59 | 67.58351 | 24.55309 | 10045 ft | 312 kts | 201° |
| 2026-04-25 14:59 | 67.56228 | 24.53371 | 10389 ft | 332 kts | 200° |
| 2026-04-25 14:59 | 67.53997 | 24.51434 | 10992 ft | 340 kts | 199° |
| 2026-04-25 14:59 | 67.51731 | 24.49524 | 11722 ft | 345 kts | 199° |
| 2026-04-25 15:00 | 67.49459 | 24.47584 | 12481 ft | 349 kts | 200° |
| 2026-04-25 15:00 | 67.47139 | 24.45533 | 13229 ft | 353 kts | 200° |
| 2026-04-25 15:00 | 67.44825 | 24.43453 | 13915 ft | 357 kts | 200° |
| 2026-04-25 15:00 | 67.42459 | 24.41314 | 14622 ft | 360 kts | 200° |
| 2026-04-25 15:01 | 67.40072 | 24.39285 | 15363 ft | 362 kts | 200° |
| 2026-04-25 15:01 | 67.37743 | 24.36749 | 16088 ft | 362 kts | 210° |
| 2026-04-25 15:01 | 67.35620 | 24.33189 | 16794 ft | 362 kts | 218° |
| 2026-04-25 15:01 | 67.33611 | 24.29331 | 17526 ft | 364 kts | 219° |
| 2026-04-25 15:02 | 67.31575 | 24.25372 | 18205 ft | 366 kts | 219° |
| 2026-04-25 15:02 | 67.29538 | 24.21398 | 18827 ft | 367 kts | 219° |
| 2026-04-25 15:02 | 67.27483 | 24.17407 | 19438 ft | 369 kts | 219° |
| 2026-04-25 15:02 | 67.25445 | 24.13472 | 20022 ft | 371 kts | 219° |
| 2026-04-25 15:03 | 67.23368 | 24.09474 | 20618 ft | 373 kts | 219° |
| 2026-04-25 15:03 | 67.21276 | 24.05451 | 21190 ft | 375 kts | 219° |
| 2026-04-25 15:03 | 67.19173 | 24.01417 | 21739 ft | 377 kts | 219° |
| 2026-04-25 15:03 | 67.17087 | 23.97432 | 22313 ft | 379 kts | 219° |
| 2026-04-25 15:04 | 67.14960 | 23.93388 | 22867 ft | 381 kts | 219° |
| 2026-04-25 15:04 | 67.12820 | 23.89336 | 23360 ft | 383 kts | 219° |
| 2026-04-25 15:04 | 67.10657 | 23.85246 | 23752 ft | 386 kts | 219° |
| 2026-04-25 15:04 | 67.08478 | 23.81127 | 24135 ft | 390 kts | 219° |
| 2026-04-25 15:05 | 67.06313 | 23.77043 | 24486 ft | 393 kts | 219° |
| 2026-04-25 15:05 | 67.04090 | 23.72856 | 24857 ft | 397 kts | 219° |
| 2026-04-25 15:05 | 67.01852 | 23.68618 | 25215 ft | 401 kts | 219° |
| 2026-04-25 15:06 | 66.97390 | 23.59991 | 25921 ft | 407 kts | 219° |
| 2026-04-25 15:06 | 66.95119 | 23.55580 | 26265 ft | 411 kts | 219° |
| 2026-04-25 15:06 | 66.92851 | 23.51187 | 26607 ft | 414 kts | 219° |
| 2026-04-25 15:06 | 66.90536 | 23.46722 | 26935 ft | 417 kts | 219° |
| 2026-04-25 15:07 | 66.88208 | 23.42255 | 27253 ft | 421 kts | 219° |
| 2026-04-25 15:07 | 66.85851 | 23.37760 | 27574 ft | 424 kts | 219° |
| 2026-04-25 15:07 | 66.83478 | 23.33252 | 27888 ft | 427 kts | 219° |
| 2026-04-25 15:07 | 66.81111 | 23.28758 | 28187 ft | 431 kts | 219° |
| 2026-04-25 15:08 | 66.78690 | 23.24166 | 28493 ft | 434 kts | 219° |
| 2026-04-25 15:08 | 66.76261 | 23.19576 | 28786 ft | 437 kts | 219° |
| 2026-04-25 15:08 | 66.73840 | 23.15008 | 29078 ft | 440 kts | 219° |
| 2026-04-25 15:08 | 66.71372 | 23.10363 | 29370 ft | 444 kts | 219° |
| 2026-04-25 15:09 | 66.68876 | 23.05687 | 29642 ft | 447 kts | 218° |
| 2026-04-25 15:09 | 66.66357 | 23.01009 | 29860 ft | 450 kts | 218° |
| 2026-04-25 15:09 | 66.61227 | 22.91888 | 30303 ft | 456 kts | 217° |
| 2026-04-25 15:10 | 66.58594 | 22.87386 | 30509 ft | 458 kts | 216° |
| 2026-04-25 15:10 | 66.55939 | 22.82906 | 30711 ft | 460 kts | 216° |
| 2026-04-25 15:10 | 66.50609 | 22.73959 | 31094 ft | 465 kts | 216° |
| 2026-04-25 15:11 | 66.47919 | 22.69431 | 31345 ft | 465 kts | 216° |
| 2026-04-25 15:11 | 66.45225 | 22.64884 | 31612 ft | 465 kts | 216° |
| 2026-04-25 15:11 | 66.42576 | 22.60407 | 31868 ft | 465 kts | 216° |
| 2026-04-25 15:12 | 66.37194 | 22.51337 | 32362 ft | 466 kts | 216° |
| 2026-04-25 15:12 | 66.34501 | 22.46820 | 32593 ft | 467 kts | 216° |
| 2026-04-25 15:12 | 66.31825 | 22.42354 | 32842 ft | 467 kts | 216° |
| 2026-04-25 15:12 | 66.30912 | 22.40836 | 32923 ft | 467 kts | 216° |
| 2026-04-25 15:13 | 66.26409 | 22.33374 | 33316 ft | 468 kts | 216° |
| 2026-04-25 15:13 | 66.21012 | 22.24463 | 33743 ft | 468 kts | 216° |
| 2026-04-25 15:13 | 66.18294 | 22.19990 | 33944 ft | 469 kts | 216° |
| 2026-04-25 15:14 | 66.15575 | 22.15528 | 34130 ft | 469 kts | 216° |
| 2026-04-25 15:14 | 66.12853 | 22.11066 | 34315 ft | 469 kts | 216° |
| 2026-04-25 15:14 | 66.10132 | 22.06608 | 34507 ft | 469 kts | 216° |
| 2026-04-25 15:14 | 66.07439 | 22.02203 | 34684 ft | 469 kts | 216° |
| 2026-04-25 15:15 | 66.04712 | 21.97763 | 34879 ft | 469 kts | 216° |
| 2026-04-25 15:15 | 66.01983 | 21.93338 | 35050 ft | 469 kts | 216° |
| 2026-04-25 15:15 | 65.99253 | 21.88919 | 35218 ft | 469 kts | 216° |
| 2026-04-25 15:15 | 65.96519 | 21.84499 | 35381 ft | 469 kts | 215° |
| 2026-04-25 15:16 | 65.93818 | 21.80145 | 35544 ft | 469 kts | 215° |
| 2026-04-25 15:16 | 65.85643 | 21.67089 | 35623 ft | 465 kts | 215° |
| 2026-04-25 15:17 | 65.77528 | 21.54211 | 35625 ft | 465 kts | 215° |
| 2026-04-25 15:18 | 65.72107 | 21.45656 | 35619 ft | 465 kts | 215° |
| 2026-04-25 15:18 | 65.63985 | 21.32919 | 35622 ft | 465 kts | 215° |
| 2026-04-25 15:19 | 65.60331 | 21.27215 | 35636 ft | 466 kts | 215° |
| 2026-04-25 15:19 | 65.53066 | 21.15942 | 35644 ft | 467 kts | 215° |
| 2026-04-25 15:20 | 65.47618 | 21.07534 | 35639 ft | 467 kts | 215° |
| 2026-04-25 15:20 | 65.42133 | 20.99118 | 35641 ft | 467 kts | 214° |
| 2026-04-25 15:21 | 65.36666 | 20.90770 | 35650 ft | 467 kts | 214° |
| 2026-04-25 15:21 | 65.31166 | 20.82406 | 35654 ft | 468 kts | 214° |
| 2026-04-25 15:22 | 65.25682 | 20.74104 | 35652 ft | 468 kts | 214° |
| 2026-04-25 15:22 | 65.20197 | 20.65851 | 35653 ft | 468 kts | 214° |
| 2026-04-25 15:23 | 65.14663 | 20.57565 | 35655 ft | 469 kts | 214° |
| 2026-04-25 15:23 | 65.09161 | 20.49383 | 35653 ft | 469 kts | 214° |
| 2026-04-25 15:24 | 65.03629 | 20.41192 | 35657 ft | 469 kts | 214° |
| 2026-04-25 15:24 | 64.99957 | 20.35763 | 35654 ft | 469 kts | 214° |
| 2026-04-25 15:25 | 64.92554 | 20.24887 | 35657 ft | 469 kts | 214° |
| 2026-04-25 15:25 | 64.87039 | 20.16834 | 35657 ft | 469 kts | 214° |
| 2026-04-25 15:26 | 64.81473 | 20.08757 | 35658 ft | 469 kts | 214° |
| 2026-04-25 15:26 | 64.75955 | 20.00765 | 35662 ft | 469 kts | 214° |
| 2026-04-25 15:27 | 64.70378 | 19.92721 | 35664 ft | 469 kts | 214° |
| 2026-04-25 15:28 | 64.62053 | 19.80821 | 35667 ft | 469 kts | 213° |
| 2026-04-25 15:28 | 64.56480 | 19.72902 | 35668 ft | 469 kts | 213° |
| 2026-04-25 15:29 | 64.50924 | 19.65046 | 35667 ft | 469 kts | 213° |
| 2026-04-25 15:29 | 64.45357 | 19.57215 | 35670 ft | 469 kts | 213° |
| 2026-04-25 15:30 | 64.39753 | 19.49363 | 35672 ft | 469 kts | 213° |
| 2026-04-25 15:30 | 64.34197 | 19.41601 | 35674 ft | 469 kts | 213° |
| 2026-04-25 15:31 | 64.28595 | 19.33826 | 35673 ft | 469 kts | 213° |
| 2026-04-25 15:31 | 64.22983 | 19.26101 | 35672 ft | 470 kts | 213° |
| 2026-04-25 15:32 | 64.17399 | 19.18432 | 35669 ft | 470 kts | 213° |
| 2026-04-25 15:32 | 64.11779 | 19.10732 | 35672 ft | 470 kts | 213° |
| 2026-04-25 15:33 | 64.03368 | 18.99276 | 35675 ft | 470 kts | 213° |
| 2026-04-25 15:33 | 63.97730 | 18.91650 | 35678 ft | 471 kts | 213° |
| 2026-04-25 15:34 | 63.93026 | 18.85317 | 35678 ft | 471 kts | 213° |
| 2026-04-25 15:34 | 63.88329 | 18.79019 | 35678 ft | 471 kts | 213° |
| 2026-04-25 15:35 | 63.78939 | 18.66544 | 35684 ft | 471 kts | 213° |
| 2026-04-25 15:36 | 63.70438 | 18.55281 | 35683 ft | 472 kts | 213° |
| 2026-04-25 15:36 | 63.64796 | 18.47841 | 35685 ft | 472 kts | 213° |
| 2026-04-25 15:37 | 63.59134 | 18.40424 | 35684 ft | 472 kts | 213° |
| 2026-04-25 15:37 | 63.53433 | 18.33000 | 35683 ft | 472 kts | 213° |
| 2026-04-25 15:38 | 63.47743 | 18.25612 | 35686 ft | 473 kts | 213° |
| 2026-04-25 15:38 | 63.42077 | 18.18294 | 35689 ft | 473 kts | 213° |
| 2026-04-25 15:39 | 63.36362 | 18.10953 | 35693 ft | 473 kts | 212° |
| 2026-04-25 15:39 | 63.30682 | 18.03696 | 35703 ft | 473 kts | 212° |
| 2026-04-25 15:40 | 63.25928 | 17.97645 | 35703 ft | 473 kts | 212° |
| 2026-04-25 15:40 | 63.19241 | 17.89155 | 35707 ft | 473 kts | 212° |
| 2026-04-25 15:41 | 63.13549 | 17.81970 | 35720 ft | 473 kts | 212° |
| 2026-04-25 15:41 | 63.07825 | 17.74772 | 35713 ft | 473 kts | 212° |
| 2026-04-25 15:42 | 63.02110 | 17.67655 | 35718 ft | 473 kts | 212° |
| 2026-04-25 15:42 | 62.96366 | 17.60528 | 35715 ft | 473 kts | 212° |
| 2026-04-25 15:43 | 62.90658 | 17.53448 | 35710 ft | 473 kts | 212° |
| 2026-04-25 15:43 | 62.84961 | 17.46400 | 35705 ft | 473 kts | 212° |
| 2026-04-25 15:44 | 62.79213 | 17.39328 | 35704 ft | 473 kts | 212° |
| 2026-04-25 15:44 | 62.73492 | 17.32347 | 35709 ft | 473 kts | 212° |
| 2026-04-25 15:45 | 62.67726 | 17.25339 | 35710 ft | 473 kts | 212° |
| 2026-04-25 15:45 | 62.62942 | 17.19549 | 35714 ft | 474 kts | 212° |
| 2026-04-25 15:46 | 62.56225 | 17.11464 | 35714 ft | 474 kts | 212° |
| 2026-04-25 15:46 | 62.50449 | 17.04517 | 35712 ft | 474 kts | 212° |
| 2026-04-25 15:47 | 62.44713 | 16.97651 | 35713 ft | 474 kts | 212° |
| 2026-04-25 15:47 | 62.38934 | 16.90765 | 35716 ft | 474 kts | 212° |
| 2026-04-25 15:48 | 62.33191 | 16.83949 | 35725 ft | 474 kts | 212° |
| 2026-04-25 15:48 | 62.27394 | 16.77115 | 35723 ft | 474 kts | 212° |
| 2026-04-25 15:49 | 62.21594 | 16.70316 | 35716 ft | 474 kts | 212° |
| 2026-04-25 15:49 | 62.15799 | 16.63553 | 35723 ft | 474 kts | 212° |
| 2026-04-25 15:50 | 62.10032 | 16.56841 | 35716 ft | 474 kts | 212° |
| 2026-04-25 15:50 | 62.04227 | 16.50106 | 35725 ft | 475 kts | 212° |
| 2026-04-25 15:51 | 61.99388 | 16.44528 | 35724 ft | 475 kts | 212° |
| 2026-04-25 15:51 | 61.92630 | 16.36755 | 35728 ft | 475 kts | 212° |
| 2026-04-25 15:52 | 61.86830 | 16.30135 | 35729 ft | 475 kts | 212° |
| 2026-04-25 15:52 | 61.80995 | 16.23500 | 35736 ft | 475 kts | 212° |
| 2026-04-25 15:53 | 61.75198 | 16.16916 | 35730 ft | 475 kts | 212° |
| 2026-04-25 15:53 | 61.69361 | 16.10313 | 35733 ft | 475 kts | 212° |
| 2026-04-25 15:54 | 61.63524 | 16.03750 | 35740 ft | 475 kts | 212° |
| 2026-04-25 15:54 | 61.57698 | 15.97242 | 35741 ft | 475 kts | 212° |
| 2026-04-25 15:55 | 61.51844 | 15.90725 | 35743 ft | 475 kts | 212° |
| 2026-04-25 15:55 | 61.46039 | 15.84265 | 35747 ft | 475 kts | 212° |
| 2026-04-25 15:56 | 61.40179 | 15.77791 | 35745 ft | 475 kts | 212° |
| 2026-04-25 15:56 | 61.34348 | 15.71379 | 35750 ft | 476 kts | 212° |
| 2026-04-25 15:57 | 61.28511 | 15.64990 | 35751 ft | 476 kts | 212° |
| 2026-04-25 15:57 | 61.22643 | 15.58599 | 35747 ft | 476 kts | 212° |
| 2026-04-25 15:58 | 61.16777 | 15.52213 | 35762 ft | 476 kts | 212° |
| 2026-04-25 15:58 | 61.10927 | 15.45874 | 35759 ft | 476 kts | 212° |
| 2026-04-25 15:59 | 61.05050 | 15.39541 | 35756 ft | 476 kts | 212° |
| 2026-04-25 15:59 | 60.99164 | 15.33226 | 35753 ft | 476 kts | 212° |
| 2026-04-25 16:00 | 60.95252 | 15.29055 | 35754 ft | 476 kts | 212° |
| 2026-04-25 16:00 | 60.87438 | 15.20756 | 35755 ft | 476 kts | 212° |
| 2026-04-25 16:01 | 60.81550 | 15.14522 | 35744 ft | 476 kts | 212° |
| 2026-04-25 16:01 | 60.75651 | 15.08285 | 35742 ft | 475 kts | 212° |
| 2026-04-25 16:02 | 60.69790 | 15.02113 | 35741 ft | 475 kts | 212° |
| 2026-04-25 16:02 | 60.63929 | 14.95985 | 35739 ft | 475 kts | 212° |
| 2026-04-25 16:03 | 60.58027 | 14.89855 | 35744 ft | 475 kts | 212° |
| 2026-04-25 16:03 | 60.52151 | 14.83760 | 35738 ft | 476 kts | 212° |
| 2026-04-25 16:04 | 60.46244 | 14.77640 | 35748 ft | 476 kts | 212° |
| 2026-04-25 16:04 | 60.40370 | 14.71574 | 35740 ft | 476 kts | 212° |
| 2026-04-25 16:05 | 60.34461 | 14.65525 | 35749 ft | 476 kts | 211° |
| 2026-04-25 16:06 | 60.25583 | 14.56475 | 35755 ft | 476 kts | 211° |
| 2026-04-25 16:06 | 60.19700 | 14.50503 | 35774 ft | 476 kts | 212° |
| 2026-04-25 16:07 | 60.13778 | 14.44532 | 35766 ft | 476 kts | 211° |
| 2026-04-25 16:07 | 60.07889 | 14.38613 | 35760 ft | 476 kts | 211° |
| 2026-04-25 16:08 | 60.01958 | 14.32674 | 35757 ft | 476 kts | 211° |
| 2026-04-25 16:08 | 59.96071 | 14.26796 | 35767 ft | 475 kts | 212° |
| 2026-04-25 16:09 | 59.90145 | 14.20893 | 35763 ft | 475 kts | 211° |
| 2026-04-25 16:09 | 59.84256 | 14.15050 | 35770 ft | 475 kts | 211° |
| 2026-04-25 16:10 | 59.78333 | 14.09201 | 35761 ft | 475 kts | 211° |
| 2026-04-25 16:10 | 59.72400 | 14.03382 | 35766 ft | 475 kts | 211° |
| 2026-04-25 16:11 | 59.66479 | 13.97588 | 35759 ft | 475 kts | 211° |
| 2026-04-25 16:11 | 59.60569 | 13.91829 | 35767 ft | 475 kts | 211° |
| 2026-04-25 16:12 | 59.54632 | 13.86071 | 35769 ft | 475 kts | 211° |
| 2026-04-25 16:12 | 59.48723 | 13.80357 | 35786 ft | 475 kts | 211° |
| 2026-04-25 16:13 | 59.42775 | 13.74634 | 35788 ft | 475 kts | 211° |
| 2026-04-25 16:13 | 59.36851 | 13.68948 | 35794 ft | 475 kts | 211° |
| 2026-04-25 16:14 | 59.30916 | 13.63262 | 35786 ft | 474 kts | 211° |
| 2026-04-25 16:14 | 59.25015 | 13.57633 | 35787 ft | 474 kts | 211° |
| 2026-04-25 16:15 | 59.19073 | 13.52024 | 35680 ft | 471 kts | 211° |
| 2026-04-25 16:15 | 59.16166 | 13.49304 | 35198 ft | 469 kts | 211° |
| 2026-04-25 16:15 | 59.13209 | 13.46508 | 34434 ft | 473 kts | 212° |
| 2026-04-25 16:15 | 59.10233 | 13.43680 | 33808 ft | 475 kts | 212° |
| 2026-04-25 16:16 | 59.07275 | 13.40897 | 33339 ft | 470 kts | 212° |
| 2026-04-25 16:16 | 59.04389 | 13.38167 | 32979 ft | 463 kts | 212° |
| 2026-04-25 16:16 | 59.01518 | 13.35440 | 32613 ft | 455 kts | 212° |
| 2026-04-25 16:16 | 58.98654 | 13.32756 | 31960 ft | 455 kts | 212° |
| 2026-04-25 16:17 | 58.95823 | 13.30144 | 31379 ft | 454 kts | 212° |
| 2026-04-25 16:17 | 58.92982 | 13.27532 | 30898 ft | 450 kts | 212° |
| 2026-04-25 16:17 | 58.90160 | 13.24944 | 30456 ft | 446 kts | 212° |
| 2026-04-25 16:17 | 58.87368 | 13.22391 | 30027 ft | 441 kts | 212° |
| 2026-04-25 16:18 | 58.84603 | 13.19870 | 29581 ft | 436 kts | 212° |
| 2026-04-25 16:18 | 58.83712 | 13.19054 | 29406 ft | 434 kts | 212° |
| 2026-04-25 16:18 | 58.79195 | 13.14841 | 28354 ft | 432 kts | 213° |
| 2026-04-25 16:18 | 58.76501 | 13.12309 | 27885 ft | 426 kts | 213° |
| 2026-04-25 16:19 | 58.73860 | 13.09808 | 27544 ft | 417 kts | 213° |
| 2026-04-25 16:19 | 58.71322 | 13.07344 | 27201 ft | 410 kts | 214° |
| 2026-04-25 16:19 | 58.68795 | 13.04828 | 26751 ft | 406 kts | 215° |
| 2026-04-25 16:20 | 58.63858 | 12.99877 | 25930 ft | 397 kts | 214° |
| 2026-04-25 16:20 | 58.61412 | 12.97461 | 25591 ft | 391 kts | 214° |
| 2026-04-25 16:20 | 58.56624 | 12.92814 | 24953 ft | 378 kts | 214° |
| 2026-04-25 16:21 | 58.54318 | 12.90592 | 24609 ft | 373 kts | 215° |
| 2026-04-25 16:21 | 58.52017 | 12.88322 | 24127 ft | 373 kts | 215° |
| 2026-04-25 16:21 | 58.49693 | 12.86033 | 23622 ft | 375 kts | 214° |
| 2026-04-25 16:21 | 58.47356 | 12.83794 | 23111 ft | 375 kts | 214° |
| 2026-04-25 16:22 | 58.45063 | 12.81616 | 22721 ft | 373 kts | 214° |
| 2026-04-25 16:22 | 58.42740 | 12.79402 | 22391 ft | 374 kts | 213° |
| 2026-04-25 16:22 | 58.40411 | 12.77163 | 22059 ft | 375 kts | 214° |
| 2026-04-25 16:22 | 58.38078 | 12.74884 | 21613 ft | 377 kts | 214° |
| 2026-04-25 16:23 | 58.35744 | 12.72601 | 21178 ft | 376 kts | 214° |
| 2026-04-25 16:23 | 58.33418 | 12.70356 | 20761 ft | 373 kts | 213° |
| 2026-04-25 16:23 | 58.31134 | 12.68186 | 20377 ft | 369 kts | 213° |
| 2026-04-25 16:23 | 58.28832 | 12.66026 | 19940 ft | 367 kts | 213° |
| 2026-04-25 16:24 | 58.26547 | 12.63878 | 19493 ft | 365 kts | 213° |
| 2026-04-25 16:24 | 58.24311 | 12.61762 | 19097 ft | 361 kts | 213° |
| 2026-04-25 16:24 | 58.22077 | 12.59639 | 18698 ft | 356 kts | 213° |
| 2026-04-25 16:24 | 58.19876 | 12.57538 | 18307 ft | 350 kts | 213° |
| 2026-04-25 16:25 | 58.17715 | 12.55477 | 17904 ft | 345 kts | 213° |
| 2026-04-25 16:25 | 58.17016 | 12.54817 | 17754 ft | 344 kts | 212° |
| 2026-04-25 16:25 | 58.13448 | 12.51470 | 17034 ft | 337 kts | 212° |
| 2026-04-25 16:25 | 58.11371 | 12.49516 | 16587 ft | 334 kts | 212° |
| 2026-04-25 16:26 | 58.09293 | 12.47560 | 16224 ft | 333 kts | 212° |
| 2026-04-25 16:26 | 58.08082 | 12.46418 | 16002 ft | 334 kts | 212° |
| 2026-04-25 16:26 | 58.06029 | 12.44471 | 15648 ft | 335 kts | 212° |
| 2026-04-25 16:26 | 58.03945 | 12.42501 | 15281 ft | 335 kts | 211° |
| 2026-04-25 16:27 | 58.01855 | 12.40533 | 14888 ft | 335 kts | 211° |
| 2026-04-25 16:27 | 57.99774 | 12.38584 | 14475 ft | 333 kts | 211° |
| 2026-04-25 16:27 | 57.97714 | 12.36663 | 14085 ft | 332 kts | 210° |
| 2026-04-25 16:27 | 57.95647 | 12.34748 | 13713 ft | 329 kts | 210° |
| 2026-04-25 16:28 | 57.93601 | 12.32862 | 13312 ft | 325 kts | 210° |
| 2026-04-25 16:28 | 57.91609 | 12.31027 | 12918 ft | 321 kts | 210° |
| 2026-04-25 16:28 | 57.89610 | 12.29171 | 12555 ft | 318 kts | 210° |
| 2026-04-25 16:28 | 57.87629 | 12.27332 | 12238 ft | 316 kts | 210° |
| 2026-04-25 16:29 | 57.85657 | 12.25495 | 11949 ft | 318 kts | 210° |
| 2026-04-25 16:29 | 57.83662 | 12.23633 | 11570 ft | 320 kts | 210° |
| 2026-04-25 16:29 | 57.81656 | 12.21777 | 11189 ft | 321 kts | 210° |
| 2026-04-25 16:29 | 57.79682 | 12.19955 | 10895 ft | 315 kts | 210° |
| 2026-04-25 16:30 | 57.78383 | 12.18761 | 10697 ft | 310 kts | 210° |
| 2026-04-25 16:30 | 57.75806 | 12.16390 | 10265 ft | 305 kts | 210° |
| 2026-04-25 16:30 | 57.73903 | 12.14636 | 9827 ft | 304 kts | 210° |
| 2026-04-25 16:30 | 57.72024 | 12.12902 | 9369 ft | 304 kts | 210° |
| 2026-04-25 16:31 | 57.70128 | 12.11158 | 8920 ft | 303 kts | 210° |
| 2026-04-25 16:31 | 57.68233 | 12.09416 | 8505 ft | 301 kts | 209° |
| 2026-04-25 16:31 | 57.66365 | 12.07702 | 8172 ft | 297 kts | 210° |
| 2026-04-25 16:31 | 57.64553 | 12.06025 | 7867 ft | 291 kts | 210° |
| 2026-04-25 16:32 | 57.62749 | 12.04345 | 7549 ft | 287 kts | 210° |
| 2026-04-25 16:32 | 57.60951 | 12.02741 | 7187 ft | 287 kts | 204° |
| 2026-04-25 16:32 | 57.59055 | 12.01636 | 6779 ft | 288 kts | 198° |
| 2026-04-25 16:32 | 57.57136 | 12.00569 | 6407 ft | 287 kts | 200° |
| 2026-04-25 16:33 | 57.55235 | 11.99448 | 6054 ft | 285 kts | 200° |
| 2026-04-25 16:33 | 57.53359 | 11.98345 | 5799 ft | 279 kts | 199° |
| 2026-04-25 16:33 | 57.51489 | 11.97906 | 5615 ft | 272 kts | 177° |
| 2026-04-25 16:33 | 57.49669 | 11.98649 | 5444 ft | 264 kts | 157° |
| 2026-04-25 16:34 | 57.48056 | 12.00143 | 5265 ft | 255 kts | 162° |
| 2026-04-25 16:34 | 57.46326 | 12.00370 | 5028 ft | 247 kts | 188° |
| 2026-04-25 16:34 | 57.44722 | 11.99400 | 4767 ft | 243 kts | 213° |
| 2026-04-25 16:34 | 57.43365 | 11.97506 | 4546 ft | 246 kts | 223° |
| 2026-04-25 16:35 | 57.42062 | 11.95482 | 4385 ft | 249 kts | 224° |
| 2026-04-25 16:35 | 57.40753 | 11.93335 | 4235 ft | 252 kts | 226° |
| 2026-04-25 16:35 | 57.39413 | 11.91171 | 4106 ft | 256 kts | 224° |
| 2026-04-25 16:35 | 57.37946 | 11.89255 | 3939 ft | 262 kts | 206° |
| 2026-04-25 16:36 | 57.36174 | 11.88658 | 3769 ft | 268 kts | 174° |
| 2026-04-25 16:36 | 57.35550 | 11.88863 | 3708 ft | 268 kts | 163° |
| 2026-04-25 16:36 | 57.33152 | 11.92362 | 3395 ft | 271 kts | 126° |
| 2026-04-25 16:36 | 57.31974 | 11.95179 | 3210 ft | 280 kts | 125° |
| 2026-04-25 16:37 | 57.30809 | 11.98032 | 3064 ft | 281 kts | 125° |
| 2026-04-25 16:37 | 57.29629 | 12.00948 | 3029 ft | 281 kts | 124° |
| 2026-04-25 16:37 | 57.28482 | 12.03761 | 3002 ft | 265 kts | 125° |
| 2026-04-25 16:37 | 57.27391 | 12.06420 | 3005 ft | 263 kts | 125° |
| 2026-04-25 16:38 | 57.26337 | 12.09176 | 3002 ft | 260 kts | 114° |
| 2026-04-25 16:38 | 57.25956 | 12.12336 | 3012 ft | 249 kts | 81° |
| 2026-04-25 16:38 | 57.26502 | 12.15212 | 3019 ft | 236 kts | 49° |
| 2026-04-25 16:38 | 57.27751 | 12.17041 | 2987 ft | 227 kts | 17° |
| 2026-04-25 16:39 | 57.29297 | 12.17315 | 2991 ft | 222 kts | 353° |
| 2026-04-25 16:39 | 57.30839 | 12.17119 | 3006 ft | 223 kts | 355° |
| 2026-04-25 16:39 | 57.32372 | 12.16933 | 3003 ft | 223 kts | 354° |
| 2026-04-25 16:39 | 57.33916 | 12.16733 | 2991 ft | 218 kts | 354° |
| 2026-04-25 16:40 | 57.35387 | 12.16570 | 3025 ft | 203 kts | 355° |
| 2026-04-25 16:40 | 57.36738 | 12.16478 | 3049 ft | 191 kts | 356° |
| 2026-04-25 16:40 | 57.37632 | 12.16413 | 3064 ft | 195 kts | 355° |
| 2026-04-25 16:40 | 57.39436 | 12.16226 | 3018 ft | 197 kts | 355° |
| 2026-04-25 16:41 | 57.40805 | 12.16073 | 3033 ft | 198 kts | 355° |
| 2026-04-25 16:41 | 57.41273 | 12.16023 | 3037 ft | 199 kts | 355° |
| 2026-04-25 16:41 | 57.44233 | 12.15724 | 3035 ft | 168 kts | 355° |
| 2026-04-25 16:42 | 57.45389 | 12.15627 | 3027 ft | 164 kts | 355° |
| 2026-04-25 16:42 | 57.46915 | 12.15459 | 3017 ft | 166 kts | 355° |
| 2026-04-25 16:42 | 57.47680 | 12.15382 | 3010 ft | 166 kts | 355° |
| 2026-04-25 16:42 | 57.48826 | 12.15282 | 3015 ft | 164 kts | 355° |
| 2026-04-25 16:43 | 57.50339 | 12.15146 | 3007 ft | 164 kts | 355° |
| 2026-04-25 16:43 | 57.51112 | 12.15080 | 2999 ft | 163 kts | 355° |
| 2026-04-25 16:43 | 57.52222 | 12.15251 | 2994 ft | 165 kts | 16° |
| 2026-04-25 16:43 | 57.53255 | 12.16197 | 2973 ft | 166 kts | 22° |
| 2026-04-25 16:44 | 57.54311 | 12.17143 | 2762 ft | 167 kts | 21° |
| 2026-04-25 16:44 | 57.55349 | 12.18071 | 2502 ft | 162 kts | 21° |
| 2026-04-25 16:44 | 57.56330 | 12.18964 | 2317 ft | 155 kts | 21° |
| 2026-04-25 16:44 | 57.57294 | 12.19823 | 2119 ft | 152 kts | 20° |
| 2026-04-25 16:45 | 57.58206 | 12.20655 | 2007 ft | 139 kts | 20° |
| 2026-04-25 16:45 | 57.59046 | 12.21416 | 1779 ft | 131 kts | 19° |
| 2026-04-25 16:45 | 57.59864 | 12.22157 | 1577 ft | 133 kts | 19° |
| 2026-04-25 16:45 | 57.60713 | 12.22899 | 1439 ft | 137 kts | 20° |
| 2026-04-25 16:46 | 57.61551 | 12.23691 | 1239 ft | 131 kts | 20° |
| 2026-04-25 16:46 | 57.62348 | 12.24404 | 1041 ft | 123 kts | 21° |
| 2026-04-25 16:46 | 57.63128 | 12.25096 | 881 ft | 126 kts | 21° |
| 2026-04-25 16:46 | 57.63647 | 12.25576 | 794 ft | 125 kts | 21° |
| 2026-04-25 16:47 | 57.64692 | 12.26537 | 591 ft | 127 kts | 24° |
| 2026-04-25 16:47 | 57.65471 | 12.27238 | 500 ft | 114 kts | 24° |
| 2026-04-25 16:47 | 57.66049 | 12.27764 | 508 ft | 68 kts | 26° |
| 2026-04-25 16:47 | 57.66361 | 12.28049 | 511 ft | 43 kts | 26° |
| 2026-04-25 16:48 | 57.66601 | 12.28298 | 512 ft | 34 kts | 41° |
| 2026-04-25 16:48 | 57.66720 | 12.28585 | 512 ft | 18 kts | 57° |
| 2026-04-25 16:48 | 57.66741 | 12.28646 | 513 ft | 1 kts | 57° |
| 2026-04-25 16:48 | 57.66748 | 12.28665 | 513 ft | 3 kts | 57° |
| 2026-04-25 16:49 | 57.66763 | 12.28708 | 513 ft | 5 kts | 56° |
| 2026-04-25 16:49 | 57.66789 | 12.28773 | 513 ft | 7 kts | 47° |
| 2026-04-25 16:49 | 57.66838 | 12.28830 | 513 ft | 9 kts | 26° |
| 2026-04-25 16:49 | 57.66899 | 12.28885 | 514 ft | 10 kts | 26° |
| 2026-04-25 16:50 | 57.66964 | 12.28945 | 514 ft | 11 kts | 26° |
| 2026-04-25 16:50 | 57.67034 | 12.29015 | 514 ft | 10 kts | 46° |
| 2026-04-25 16:50 | 57.67026 | 12.29138 | 516 ft | 10 kts | 115° |
| 2026-04-25 16:50 | 57.66996 | 12.29257 | 516 ft | 8 kts | 116° |
| 2026-04-25 16:51 | 57.66964 | 12.29351 | 516 ft | 7 kts | 124° |
| 2026-04-25 16:51 | 57.66945 | 12.29415 | 516 ft | 4 kts | 116° |
| 2026-04-25 16:51 | 57.66936 | 12.29451 | 516 ft | 1 kts | 117° |
| 2026-04-25 16:51 | 57.66934 | 12.29457 | 516 ft | 1 kts | 116° |
| 2026-04-25 16:52 | 57.66933 | 12.29460 | 516 ft | 0 kts | 116° |